Pagrindinis puslapis
METAR-TAF:

METAR-TAF

Oro uostai :

Brevig Mission, Aliaska, Jungtinės Amerikos Valstijos

platuma: 65-19-53N, ilguma: 166-27-57W, Aukštis: 11 m

Dabartinis oras

Ataskaita buvo paskelbta 11 minutes, ne 23:56 UTC
Vėjas 6 kt iš Pietų/Pietryčių
Temperatūra -11°C
Drėgmė 85%
Slėgis 1004 hPa
Matomumas: 1.6 km
Išsisklaidę debesys ne aukštis 1000 ft
Su prošvaistėmis ne aukštis 1400 ft
Apsiniaukę ne aukštis 3100 ft
sniegas, rūkana

METAR: PFKT 062356Z AUTO 16006KT 1SM -SN BR SCT010 BKN014 OVC031 M11/M13 A2966 RMK AO2 SLP043 P0000 60000 T11061128 11106 21178 51002 FZRANO

Laikas: 15:07 (00:07 UTC)


TAF: trūkstamas

Orai ataskaitas ir orų prognozės (METAR, TAF).

turimą stotys yra geltonos ir raudonos taškus žemėlapyje.

Perkelti pele per norėdami pamatyti stoties vardą.

Tada spustelėkite, norėdami matyti oro stebėjimo ir prognozės.

Norėdami pakeisti žemėlapį: spustelėkite ant žalios mygtukų su juodo kryžiaus žemyn,; žalią mygtuką su brūkšneliu, jei norite nutolinti; arba žalių rodyklių gretimoms žemėlapius.


METAR-TAF: